PORT of KWINANA

Country: Australia Country: Australia [AU]
Latitude / Longitude: -32.206005° / 115.72645° Show on Map
Local Time:  [UTC +8]
UN/LOCODE: AUKWI
Vessels in Port: 18
Expected Arrivals: 14

Recent Arrivals & Departures


Vessel Name
Arrival (UTC)
Arrival (LT)
Departure (UTC)
Departure (LT)
Vessel Type: Tugs, Pilots etc  PARMELIA 2014-09-01 07:35:00 2014-09-01 15:35:00
Vessel Type: Tugs, Pilots etc  WHALE SONG 2014-09-01 01:06:00 2014-09-01 09:06:00 2014-09-01 06:53:00 2014-09-01 14:53:00
Vessel Type: Cargo Vessels  THEOFYLAKTOS 2014-09-01 02:07:00 2014-09-01 10:07:00 2014-09-01 06:06:00 2014-09-01 14:06:00
Vessel Type: Tugs, Pilots etc  PADDY TROY 2014-09-01 05:37:00 2014-09-01 13:37:00 2014-09-01 06:00:00 2014-09-01 14:00:00
Vessel Type: Tankers  PARMELIA I 2014-09-01 03:01:00 2014-09-01 11:01:00 2014-09-01 05:25:00 2014-09-01 13:25:00
TOTAL RESPONSE 2014-09-01 05:02:00 2014-09-01 13:02:00 2014-09-01 05:13:00 2014-09-01 13:13:00
Vessel Type: Cargo Vessels  OCEAN HIRYU 2014-08-30 06:04:00 2014-08-30 14:04:00 2014-09-01 04:18:00 2014-09-01 12:18:00
Vessel Type: Tugs, Pilots etc  PARMELIA 2014-09-01 01:59:00 2014-09-01 09:59:00 2014-09-01 03:15:00 2014-09-01 11:15:00
Vessel Type: Cargo Vessels  GENCO BEAUTY 2014-09-01 02:53:00 2014-09-01 10:53:00
Vessel Type: Tugs, Pilots etc  OSPREY 2014-09-01 00:14:00 2014-09-01 08:14:00 2014-09-01 01:47:00 2014-09-01 09:47:00

Expected Arrivals


Vessel Name
Scheduled Arrival (UTC)
Scheduled Arrival (LT)
Estimated Arrival (UTC)
Estimated Arrival (LT)
Vessel Type: Tankers  JUPITER SUN 2014-09-01 05:00:00 2014-09-01 13:00:00
Vessel Type: Cargo Vessels  KULJAK ARROW 2014-09-01 17:00:00 2014-09-02 01:00:00
Vessel Type: Cargo Vessels  PAN IVY 2014-09-02 02:00:00 2014-09-02 10:00:00 2014-09-02 02:46:00 2014-09-02 10:46:00
Vessel Type: Tankers  GRAND ACE11 2014-09-02 04:00:00 2014-09-02 12:00:00 2014-09-02 12:14:00 2014-09-02 20:14:00
Vessel Type: Tankers  VIRGO SUN 2014-09-02 05:00:00 2014-09-02 13:00:00 2014-09-01 23:18:00 2014-09-02 07:18:00
Vessel Type: Cargo Vessels  NEW HISTORY 2014-09-02 07:00:00 2014-09-02 15:00:00 2014-09-01 18:35:00 2014-09-02 02:35:00
Vessel Type: Tankers  TARANTELLA 2014-09-02 20:00:00 2014-09-03 04:00:00 2014-09-02 14:07:00 2014-09-02 22:07:00
Vessel Type: Tankers  VIKING RIVER 2014-09-03 00:01:00 2014-09-03 08:01:00 2014-09-02 00:30:00 2014-09-02 08:30:00
Vessel Type: Tankers  BRITISH LIBERTY 2014-09-03 09:00:00 2014-09-03 17:00:00 2014-09-02 17:52:00 2014-09-03 01:52:00
Vessel Type: Cargo Vessels  PORTLAND 2014-09-04 04:00:00 2014-09-04 12:00:00 2014-09-04 08:17:00 2014-09-04 16:17:00

Wind Forecast


    
Time (UTC)
Speed
Direction
Temperature
2014-09-01 06:00:00 4 knots 66° 18°C
2014-09-01 09:00:00 2 knots 179° 19°C
2014-09-01 12:00:00 6 knots 141° 18°C
2014-09-01 15:00:00 8 knots 79° 17°C
2014-09-01 18:00:00 9 knots 68° 16°C
2014-09-01 21:00:00 11 knots 54° 15°C
2014-09-02 00:00:00 11 knots 45° 17°C
2014-09-02 03:00:00 13 knots 349° 20°C
2014-09-02 06:00:00 16 knots 325° 20°C
2014-09-02 09:00:00 16 knots 314° 19°C
2014-09-02 12:00:00 18 knots 280° 19°C
2014-09-02 15:00:00 14 knots 237° 18°C
2014-09-02 18:00:00 14 knots 221° 17°C
2014-09-02 21:00:00 14 knots 209° 17°C
2014-09-03 00:00:00 13 knots 200° 16°C
2014-09-03 03:00:00 11 knots 191° 16°C
2014-09-03 06:00:00 10 knots 215° 17°C

NO_PHOTO

No Photos for this port. Be the first to upload one!